PTA13 LPCS-LPSO
Flight info
| Callsign | PTA13 |
|---|---|
| Flight time | N/A |
| Altitude | 3000 |
| Route | IXIDA1T IXIDA DCT |
| Aircraft | C172/L-SFG/C |
Departure
| Time | 2026-04-11 14:44 |
|---|---|
| Airport | Cascais Airport (LPCS) |
Arrival
| Time | N/A |
|---|---|
| Airport | Aeródromo Municipal de Ponte de Sor (LPSO) |
| Time | Latitude | Longitude | Altitude | Speed | Heading |
|---|---|---|---|---|---|
| 2026-04-11 14:24 | 38.72320 | -9.35325 | 298 ft | 0 kts | 155° |
| 2026-04-11 14:31 | 38.72319 | -9.35324 | 298 ft | 1 kts | 162° |
| 2026-04-11 14:31 | 38.72322 | -9.35350 | 298 ft | 5 kts | 311° |
| 2026-04-11 14:31 | 38.72318 | -9.35385 | 298 ft | 3 kts | 250° |
| 2026-04-11 14:31 | 38.72312 | -9.35394 | 300 ft | 1 kts | 204° |
| 2026-04-11 14:32 | 38.72266 | -9.35380 | 299 ft | 12 kts | 163° |
| 2026-04-11 14:32 | 38.72175 | -9.35348 | 294 ft | 14 kts | 167° |
| 2026-04-11 14:32 | 38.72116 | -9.35355 | 291 ft | 8 kts | 279° |
| 2026-04-11 14:32 | 38.72147 | -9.35388 | 291 ft | 4 kts | 348° |
| 2026-04-11 14:33 | 38.72151 | -9.35389 | 291 ft | 0 kts | 340° |
| 2026-04-11 14:34 | 38.72192 | -9.35407 | 292 ft | 24 kts | 348° |
| 2026-04-11 14:34 | 38.72471 | -9.35525 | 325 ft | 53 kts | 345° |
| 2026-04-11 14:34 | 38.72819 | -9.35833 | 375 ft | 68 kts | 333° |
| 2026-04-11 14:34 | 38.73224 | -9.36009 | 515 ft | 60 kts | 14° |
| 2026-04-11 14:35 | 38.73632 | -9.35969 | 667 ft | 65 kts | 356° |
| 2026-04-11 14:35 | 38.74141 | -9.36139 | 655 ft | 81 kts | 352° |
| 2026-04-11 14:35 | 38.74701 | -9.36256 | 652 ft | 58 kts | 1° |
| 2026-04-11 14:35 | 38.74864 | -9.36294 | 628 ft | 0 kts | 359° |
| 2026-04-11 14:36 | 38.72320 | -9.35325 | 298 ft | 0 kts | 155° |
| 2026-04-11 14:41 | 38.72319 | -9.35324 | 298 ft | 1 kts | 161° |
| 2026-04-11 14:41 | 38.72319 | -9.35368 | 299 ft | 11 kts | 275° |
| 2026-04-11 14:42 | 38.72238 | -9.35370 | 295 ft | 17 kts | 160° |
| 2026-04-11 14:42 | 38.72124 | -9.35330 | 290 ft | 10 kts | 210° |
| 2026-04-11 14:42 | 38.72143 | -9.35392 | 290 ft | 12 kts | 349° |
| 2026-04-11 14:43 | 38.72749 | -9.35537 | 335 ft | 60 kts | 5° |
| 2026-04-11 14:43 | 38.73224 | -9.35585 | 430 ft | 74 kts | 358° |
| 2026-04-11 14:43 | 38.73731 | -9.35805 | 602 ft | 78 kts | 354° |
| 2026-04-11 14:43 | 38.74213 | -9.35849 | 775 ft | 77 kts | 342° |
| 2026-04-11 14:44 | 38.74586 | -9.36348 | 1024 ft | 80 kts | 297° |
| 2026-04-11 14:44 | 38.74423 | -9.37245 | 979 ft | 119 kts | 253° |
| 2026-04-11 14:44 | 38.74131 | -9.38221 | 1009 ft | 119 kts | 283° |
| 2026-04-11 14:44 | 38.74134 | -9.39257 | 1051 ft | 119 kts | 263° |
| 2026-04-11 14:45 | 38.73888 | -9.40236 | 1031 ft | 113 kts | 261° |
| 2026-04-11 14:45 | 38.73643 | -9.41184 | 1008 ft | 111 kts | 264° |
| 2026-04-11 14:45 | 38.73421 | -9.42115 | 1010 ft | 107 kts | 265° |
| 2026-04-11 14:45 | 38.73177 | -9.43029 | 889 ft | 111 kts | 263° |
| 2026-04-11 14:46 | 38.72945 | -9.43945 | 876 ft | 107 kts | 263° |
| 2026-04-11 14:46 | 38.72694 | -9.44841 | 892 ft | 106 kts | 263° |
| 2026-04-11 14:46 | 38.72458 | -9.45733 | 881 ft | 105 kts | 264° |
| 2026-04-11 14:46 | 38.72236 | -9.46624 | 865 ft | 104 kts | 266° |
| 2026-04-11 14:47 | 38.71996 | -9.47513 | 851 ft | 106 kts | 262° |
| 2026-04-11 14:47 | 38.71576 | -9.48330 | 850 ft | 119 kts | 226° |
| 2026-04-11 14:47 | 38.70861 | -9.48872 | 854 ft | 119 kts | 220° |
| 2026-04-11 14:47 | 38.70149 | -9.49415 | 835 ft | 119 kts | 218° |
| 2026-04-11 14:48 | 38.69438 | -9.49954 | 838 ft | 119 kts | 219° |
| 2026-04-11 14:48 | 38.68729 | -9.50494 | 833 ft | 119 kts | 218° |
| 2026-04-11 14:48 | 38.68012 | -9.51036 | 827 ft | 120 kts | 218° |
| 2026-04-11 14:48 | 38.67296 | -9.51580 | 835 ft | 120 kts | 217° |
| 2026-04-11 14:49 | 38.66622 | -9.52183 | 867 ft | 114 kts | 241° |
| 2026-04-11 14:49 | 38.66315 | -9.53034 | 896 ft | 100 kts | 275° |
| 2026-04-11 14:49 | 38.66355 | -9.54712 | 894 ft | 95 kts | 287° |
| 2026-04-11 14:50 | 38.66387 | -9.55553 | 888 ft | 95 kts | 287° |
| 2026-04-11 14:50 | 38.66420 | -9.56397 | 883 ft | 95 kts | 283° |
| 2026-04-11 14:50 | 38.66454 | -9.57224 | 869 ft | 93 kts | 282° |
| 2026-04-11 14:50 | 38.66488 | -9.58059 | 860 ft | 95 kts | 282° |
| 2026-04-11 14:51 | 38.66520 | -9.58900 | 936 ft | 89 kts | 282° |
| 2026-04-11 14:51 | 38.66544 | -9.59630 | 1095 ft | 77 kts | 286° |
| 2026-04-11 14:51 | 38.66575 | -9.60323 | 1119 ft | 81 kts | 285° |
| 2026-04-11 14:51 | 38.66607 | -9.61097 | 1245 ft | 91 kts | 284° |
| 2026-04-11 14:52 | 38.66641 | -9.61937 | 1389 ft | 96 kts | 284° |
| 2026-04-11 14:52 | 38.66673 | -9.62799 | 1552 ft | 97 kts | 283° |
| 2026-04-11 14:52 | 38.66707 | -9.63661 | 1716 ft | 97 kts | 283° |
| 2026-04-11 14:52 | 38.66741 | -9.64519 | 1875 ft | 97 kts | 284° |
| 2026-04-11 14:53 | 38.66775 | -9.65387 | 2024 ft | 98 kts | 284° |
| 2026-04-11 14:53 | 38.66810 | -9.66256 | 2176 ft | 96 kts | 286° |
| 2026-04-11 14:53 | 38.67013 | -9.67020 | 2327 ft | 88 kts | 311° |
| 2026-04-11 14:53 | 38.67418 | -9.67576 | 2492 ft | 84 kts | 331° |
| 2026-04-11 14:54 | 38.67942 | -9.67870 | 2659 ft | 82 kts | 348° |
| 2026-04-11 14:54 | 38.68514 | -9.67910 | 2773 ft | 85 kts | 357° |
| 2026-04-11 14:54 | 38.69136 | -9.67921 | 2814 ft | 92 kts | 358° |
| 2026-04-11 14:54 | 38.69778 | -9.67929 | 2868 ft | 93 kts | 357° |
| 2026-04-11 14:55 | 38.70418 | -9.67938 | 2932 ft | 91 kts | 357° |
| 2026-04-11 14:55 | 38.71033 | -9.67948 | 2976 ft | 89 kts | 357° |
| 2026-04-11 14:55 | 38.71670 | -9.67956 | 2999 ft | 95 kts | 358° |
| 2026-04-11 14:55 | 38.72335 | -9.67964 | 2994 ft | 96 kts | 358° |
| 2026-04-11 14:56 | 38.73005 | -9.67972 | 2997 ft | 96 kts | 358° |
| 2026-04-11 14:56 | 38.73672 | -9.67980 | 3027 ft | 96 kts | 357° |
| 2026-04-11 14:56 | 38.74340 | -9.67990 | 3043 ft | 97 kts | 357° |
| 2026-04-11 14:56 | 38.75017 | -9.68000 | 3041 ft | 94 kts | 358° |
| 2026-04-11 14:57 | 38.75635 | -9.68007 | 3034 ft | 85 kts | 357° |
| 2026-04-11 14:57 | 38.76208 | -9.68017 | 3043 ft | 83 kts | 356° |
| 2026-04-11 14:57 | 38.76794 | -9.67932 | 3046 ft | 87 kts | 11° |
| 2026-04-11 14:57 | 38.77370 | -9.67710 | 3047 ft | 87 kts | 9° |
| 2026-04-11 14:58 | 38.77947 | -9.67490 | 3046 ft | 87 kts | 9° |
| 2026-04-11 14:58 | 38.78529 | -9.67270 | 3048 ft | 88 kts | 10° |
| 2026-04-11 14:58 | 38.79112 | -9.67049 | 3049 ft | 89 kts | 11° |
| 2026-04-11 14:58 | 38.79703 | -9.66825 | 3047 ft | 88 kts | 11° |
| 2026-04-11 14:59 | 38.80288 | -9.66603 | 3048 ft | 87 kts | 11° |
| 2026-04-11 14:59 | 38.80871 | -9.66382 | 3047 ft | 87 kts | 11° |
| 2026-04-11 14:59 | 38.81448 | -9.66162 | 3044 ft | 86 kts | 11° |
| 2026-04-11 14:59 | 38.82021 | -9.65945 | 3042 ft | 85 kts | 11° |
| 2026-04-11 15:00 | 38.82592 | -9.65730 | 3043 ft | 86 kts | 9° |
| 2026-04-11 15:00 | 38.83172 | -9.65511 | 3043 ft | 88 kts | 10° |
| 2026-04-11 15:00 | 38.83760 | -9.65288 | 3047 ft | 89 kts | 10° |
| 2026-04-11 15:00 | 38.84354 | -9.65062 | 3048 ft | 89 kts | 10° |
| 2026-04-11 15:01 | 38.84950 | -9.64836 | 3048 ft | 89 kts | 10° |
| 2026-04-11 15:01 | 38.85542 | -9.64611 | 3048 ft | 88 kts | 11° |
| 2026-04-11 15:01 | 38.86123 | -9.64391 | 3047 ft | 89 kts | 11° |
| 2026-04-11 15:01 | 38.86715 | -9.64167 | 3043 ft | 88 kts | 11° |
| 2026-04-11 15:02 | 38.87304 | -9.63943 | 3042 ft | 88 kts | 11° |
| 2026-04-11 15:02 | 38.87887 | -9.63721 | 3040 ft | 87 kts | 11° |
| 2026-04-11 15:02 | 38.88464 | -9.63502 | 3040 ft | 86 kts | 11° |
| 2026-04-11 15:02 | 38.89040 | -9.63283 | 3042 ft | 86 kts | 11° |
| 2026-04-11 15:03 | 38.89616 | -9.63063 | 3040 ft | 86 kts | 10° |
| 2026-04-11 15:03 | 38.90182 | -9.62848 | 3037 ft | 84 kts | 11° |
| 2026-04-11 15:03 | 38.90745 | -9.62634 | 3051 ft | 85 kts | 11° |
| 2026-04-11 15:03 | 38.91316 | -9.62417 | 3055 ft | 87 kts | 11° |
| 2026-04-11 15:04 | 38.91859 | -9.62036 | 3059 ft | 93 kts | 29° |
| 2026-04-11 15:04 | 38.92289 | -9.61378 | 3064 ft | 103 kts | 49° |
| 2026-04-11 15:04 | 38.92555 | -9.60498 | 3061 ft | 107 kts | 58° |
| 2026-04-11 15:04 | 38.92808 | -9.59595 | 3063 ft | 107 kts | 57° |
| 2026-04-11 15:05 | 38.93065 | -9.58700 | 3057 ft | 106 kts | 57° |
| 2026-04-11 15:05 | 38.93312 | -9.57821 | 3058 ft | 105 kts | 58° |
| 2026-04-11 15:05 | 38.93564 | -9.56940 | 3057 ft | 104 kts | 58° |
| 2026-04-11 15:05 | 38.93810 | -9.56066 | 3054 ft | 103 kts | 57° |
| 2026-04-11 15:06 | 38.94052 | -9.55207 | 3052 ft | 100 kts | 57° |
| 2026-04-11 15:06 | 38.94290 | -9.54365 | 3049 ft | 101 kts | 58° |
| 2026-04-11 15:06 | 38.94528 | -9.53524 | 3050 ft | 100 kts | 54° |
| 2026-04-11 15:06 | 38.94766 | -9.52682 | 3050 ft | 100 kts | 54° |
| 2026-04-11 15:07 | 38.95002 | -9.51843 | 3051 ft | 100 kts | 55° |
| 2026-04-11 15:07 | 38.95235 | -9.51014 | 3049 ft | 99 kts | 55° |
| 2026-04-11 15:07 | 38.95471 | -9.50191 | 3049 ft | 101 kts | 55° |
| 2026-04-11 15:07 | 38.95719 | -9.49330 | 3051 ft | 103 kts | 55° |
| 2026-04-11 15:08 | 38.95957 | -9.48476 | 3048 ft | 100 kts | 55° |
| 2026-04-11 15:08 | 38.96191 | -9.47636 | 3047 ft | 102 kts | 56° |
| 2026-04-11 15:08 | 38.96437 | -9.46773 | 3049 ft | 103 kts | 56° |
| 2026-04-11 15:08 | 38.96678 | -9.45911 | 3048 ft | 104 kts | 56° |
| 2026-04-11 15:09 | 38.96917 | -9.45051 | 3048 ft | 101 kts | 56° |
| 2026-04-11 15:09 | 38.97160 | -9.44202 | 3052 ft | 103 kts | 56° |
| 2026-04-11 15:09 | 38.97405 | -9.43339 | 3055 ft | 104 kts | 55° |
| 2026-04-11 15:09 | 38.97665 | -9.42418 | 3055 ft | 113 kts | 57° |
| 2026-04-11 15:10 | 38.97924 | -9.41486 | 3053 ft | 109 kts | 57° |
| 2026-04-11 15:10 | 38.98180 | -9.40575 | 3045 ft | 107 kts | 56° |
| 2026-04-11 15:10 | 38.98418 | -9.39721 | 3036 ft | 102 kts | 55° |
| 2026-04-11 15:10 | 38.98664 | -9.38860 | 3042 ft | 105 kts | 55° |
| 2026-04-11 15:11 | 38.98915 | -9.37964 | 3042 ft | 108 kts | 56° |
| 2026-04-11 15:11 | 38.99171 | -9.37061 | 3039 ft | 107 kts | 56° |
| 2026-04-11 15:11 | 38.99421 | -9.36173 | 3054 ft | 105 kts | 56° |
| 2026-04-11 15:11 | 38.99667 | -9.35289 | 3059 ft | 107 kts | 56° |
| 2026-04-11 15:12 | 38.99914 | -9.34400 | 3047 ft | 105 kts | 55° |
| 2026-04-11 15:12 | 39.00082 | -9.33808 | 3050 ft | 104 kts | 56° |
| 2026-04-11 15:12 | 39.00330 | -9.32936 | 3044 ft | 105 kts | 58° |
| 2026-04-11 15:12 | 39.00572 | -9.32066 | 3047 ft | 104 kts | 56° |
| 2026-04-11 15:13 | 39.00812 | -9.31206 | 3043 ft | 100 kts | 56° |
| 2026-04-11 15:13 | 39.01052 | -9.30350 | 3043 ft | 102 kts | 55° |
| 2026-04-11 15:13 | 39.01291 | -9.29502 | 3028 ft | 97 kts | 54° |
| 2026-04-11 15:13 | 39.01506 | -9.28727 | 3042 ft | 94 kts | 54° |
| 2026-04-11 15:14 | 39.01733 | -9.27914 | 3052 ft | 99 kts | 55° |
| 2026-04-11 15:14 | 39.01965 | -9.27090 | 3054 ft | 100 kts | 55° |
| 2026-04-11 15:14 | 39.02203 | -9.26240 | 3055 ft | 102 kts | 56° |
| 2026-04-11 15:14 | 39.02443 | -9.25378 | 3049 ft | 101 kts | 56° |
| 2026-04-11 15:15 | 39.02682 | -9.24519 | 3055 ft | 102 kts | 56° |
| 2026-04-11 15:15 | 39.02928 | -9.23654 | 3048 ft | 104 kts | 56° |
| 2026-04-11 15:15 | 39.03166 | -9.22788 | 3046 ft | 102 kts | 56° |
| 2026-04-11 15:15 | 39.03395 | -9.21959 | 3024 ft | 93 kts | 55° |
| 2026-04-11 15:16 | 39.03596 | -9.21242 | 3039 ft | 88 kts | 52° |
| 2026-04-11 15:16 | 39.03808 | -9.20493 | 3060 ft | 92 kts | 54° |
| 2026-04-11 15:16 | 39.04040 | -9.19692 | 3055 ft | 99 kts | 55° |
| 2026-04-11 15:16 | 39.04270 | -9.18851 | 3052 ft | 99 kts | 55° |
| 2026-04-11 15:17 | 39.04503 | -9.18015 | 3057 ft | 101 kts | 56° |
| 2026-04-11 15:17 | 39.04753 | -9.17131 | 3056 ft | 106 kts | 58° |
| 2026-04-11 15:17 | 39.05009 | -9.16206 | 3056 ft | 112 kts | 58° |
| 2026-04-11 15:17 | 39.05269 | -9.15272 | 3040 ft | 108 kts | 58° |
| 2026-04-11 15:18 | 39.05517 | -9.14373 | 3022 ft | 104 kts | 58° |
| 2026-04-11 15:18 | 39.05747 | -9.13540 | 3034 ft | 97 kts | 57° |
| 2026-04-11 15:18 | 39.05973 | -9.12736 | 3057 ft | 97 kts | 56° |
| 2026-04-11 15:18 | 39.06199 | -9.11912 | 3057 ft | 99 kts | 56° |
| 2026-04-11 15:19 | 39.06435 | -9.11083 | 3068 ft | 102 kts | 56° |
| 2026-04-11 15:19 | 39.06691 | -9.10175 | 3066 ft | 112 kts | 58° |
| 2026-04-11 15:19 | 39.06950 | -9.09228 | 3062 ft | 114 kts | 59° |
| 2026-04-11 15:19 | 39.07214 | -9.08260 | 3062 ft | 113 kts | 58° |
| 2026-04-11 15:20 | 39.07480 | -9.07306 | 3055 ft | 113 kts | 57° |
| 2026-04-11 15:20 | 39.07733 | -9.06396 | 3051 ft | 108 kts | 55° |
| 2026-04-11 15:20 | 39.07993 | -9.05465 | 3068 ft | 113 kts | 58° |
| 2026-04-11 15:20 | 39.08260 | -9.04506 | 3065 ft | 117 kts | 57° |
| 2026-04-11 15:21 | 39.08543 | -9.03497 | 3049 ft | 119 kts | 58° |
| 2026-04-11 15:21 | 39.08822 | -9.02495 | 3051 ft | 119 kts | 59° |
| 2026-04-11 15:21 | 39.09111 | -9.01466 | 3051 ft | 126 kts | 59° |
| 2026-04-11 15:21 | 39.09392 | -9.00425 | 3054 ft | 120 kts | 59° |
| 2026-04-11 15:22 | 39.09676 | -8.99392 | 3054 ft | 123 kts | 59° |
| 2026-04-11 15:22 | 39.09962 | -8.98362 | 3049 ft | 121 kts | 59° |
| 2026-04-11 15:22 | 39.10246 | -8.97339 | 3048 ft | 122 kts | 60° |
| 2026-04-11 15:22 | 39.10528 | -8.96318 | 3052 ft | 124 kts | 60° |
| 2026-04-11 15:23 | 39.10818 | -8.95274 | 3051 ft | 121 kts | 59° |
| 2026-04-11 15:23 | 39.11104 | -8.94239 | 3052 ft | 123 kts | 60° |
| 2026-04-11 15:23 | 39.11391 | -8.93189 | 3044 ft | 125 kts | 61° |
| 2026-04-11 15:23 | 39.11681 | -8.92143 | 3052 ft | 124 kts | 61° |
| 2026-04-11 15:24 | 39.11974 | -8.91087 | 3048 ft | 126 kts | 60° |
| 2026-04-11 15:24 | 39.12263 | -8.90020 | 3043 ft | 125 kts | 61° |
| 2026-04-11 15:24 | 39.12552 | -8.88982 | 3039 ft | 122 kts | 60° |
| 2026-04-11 15:24 | 39.12839 | -8.87951 | 3048 ft | 123 kts | 60° |
| 2026-04-11 15:25 | 39.13131 | -8.86901 | 3052 ft | 125 kts | 62° |
| 2026-04-11 15:25 | 39.13420 | -8.85837 | 3048 ft | 125 kts | 62° |
| 2026-04-11 15:25 | 39.13715 | -8.84771 | 3053 ft | 125 kts | 61° |
| 2026-04-11 15:25 | 39.13999 | -8.83726 | 3044 ft | 123 kts | 61° |
| 2026-04-11 15:26 | 39.14285 | -8.82694 | 3051 ft | 124 kts | 62° |
| 2026-04-11 15:26 | 39.14569 | -8.81655 | 3057 ft | 122 kts | 61° |
| 2026-04-11 15:26 | 39.14861 | -8.80609 | 3061 ft | 126 kts | 62° |
| 2026-04-11 15:26 | 39.15153 | -8.79544 | 3055 ft | 125 kts | 61° |
| 2026-04-11 15:27 | 39.15436 | -8.78502 | 3058 ft | 124 kts | 60° |
| 2026-04-11 15:27 | 39.15726 | -8.77457 | 3060 ft | 123 kts | 61° |
| 2026-04-11 15:27 | 39.16008 | -8.76415 | 3058 ft | 124 kts | 61° |
| 2026-04-11 15:27 | 39.16298 | -8.75367 | 3051 ft | 125 kts | 62° |
| 2026-04-11 15:28 | 39.16589 | -8.74316 | 3058 ft | 124 kts | 62° |
| 2026-04-11 15:28 | 39.16999 | -8.73341 | 3053 ft | 123 kts | 40° |
| 2026-04-11 15:28 | 39.17565 | -8.72533 | 3055 ft | 121 kts | 41° |
| 2026-04-11 15:28 | 39.18114 | -8.71722 | 3052 ft | 118 kts | 41° |
| 2026-04-11 15:29 | 39.18660 | -8.70931 | 3046 ft | 118 kts | 41° |
| 2026-04-11 15:29 | 39.19202 | -8.70136 | 3059 ft | 118 kts | 41° |
| 2026-04-11 15:29 | 39.19747 | -8.69341 | 3055 ft | 121 kts | 42° |
| 2026-04-11 15:29 | 39.20300 | -8.68533 | 3048 ft | 120 kts | 41° |
| 2026-04-11 15:30 | 39.20845 | -8.67736 | 3053 ft | 118 kts | 42° |
| 2026-04-11 15:30 | 39.21391 | -8.66939 | 3057 ft | 120 kts | 40° |
| 2026-04-11 15:30 | 39.21936 | -8.66134 | 3062 ft | 119 kts | 40° |
| 2026-04-11 15:30 | 39.22489 | -8.65341 | 3056 ft | 118 kts | 40° |
| 2026-04-11 15:31 | 39.23029 | -8.64537 | 3061 ft | 119 kts | 41° |
| 2026-04-11 15:31 | 39.23579 | -8.63729 | 3061 ft | 120 kts | 41° |
| 2026-04-11 15:31 | 39.24130 | -8.62920 | 3061 ft | 120 kts | 41° |
| 2026-04-11 15:31 | 39.24686 | -8.62103 | 3053 ft | 123 kts | 41° |
| 2026-04-11 15:32 | 39.25244 | -8.61290 | 3060 ft | 120 kts | 42° |
| 2026-04-11 15:32 | 39.25792 | -8.60478 | 3052 ft | 119 kts | 42° |
| 2026-04-11 15:32 | 39.26339 | -8.59676 | 3045 ft | 118 kts | 41° |
| 2026-04-11 15:32 | 39.26879 | -8.58886 | 3051 ft | 117 kts | 42° |
| 2026-04-11 15:33 | 39.27414 | -8.58103 | 3058 ft | 116 kts | 41° |
| 2026-04-11 15:33 | 39.27952 | -8.57310 | 3059 ft | 118 kts | 43° |
| 2026-04-11 15:33 | 39.28493 | -8.56519 | 3056 ft | 118 kts | 41° |
| 2026-04-11 15:33 | 39.29035 | -8.55718 | 3058 ft | 121 kts | 42° |
| 2026-04-11 15:34 | 39.29579 | -8.54918 | 3063 ft | 118 kts | 43° |
| 2026-04-11 15:34 | 39.30131 | -8.54105 | 3060 ft | 123 kts | 42° |
| 2026-04-11 15:34 | 39.30694 | -8.53282 | 3056 ft | 121 kts | 42° |
| 2026-04-11 15:34 | 39.31254 | -8.52460 | 3047 ft | 121 kts | 42° |
| 2026-04-11 15:35 | 39.31800 | -8.51654 | 3049 ft | 119 kts | 42° |
| 2026-04-11 15:35 | 39.32348 | -8.50847 | 3044 ft | 120 kts | 42° |
| 2026-04-11 15:35 | 39.32890 | -8.50050 | 3049 ft | 117 kts | 41° |
| 2026-04-11 15:35 | 39.33426 | -8.49262 | 3060 ft | 119 kts | 42° |
| 2026-04-11 15:36 | 39.33970 | -8.48456 | 3056 ft | 119 kts | 43° |
| 2026-04-11 15:36 | 39.34512 | -8.47663 | 3054 ft | 116 kts | 43° |
| 2026-04-11 15:36 | 39.35048 | -8.46871 | 3057 ft | 117 kts | 42° |
| 2026-04-11 15:36 | 39.35592 | -8.46069 | 3057 ft | 120 kts | 43° |
| 2026-04-11 15:37 | 39.36150 | -8.45254 | 3068 ft | 124 kts | 44° |
| 2026-04-11 15:37 | 39.36720 | -8.44406 | 3058 ft | 126 kts | 43° |
| 2026-04-11 15:37 | 39.37280 | -8.43577 | 3051 ft | 120 kts | 43° |
| 2026-04-11 15:37 | 39.37827 | -8.42770 | 3056 ft | 117 kts | 43° |
| 2026-04-11 15:38 | 39.38374 | -8.41957 | 3061 ft | 121 kts | 43° |
| 2026-04-11 15:38 | 39.38924 | -8.41151 | 3052 ft | 120 kts | 42° |
| 2026-04-11 15:38 | 39.39467 | -8.40353 | 3053 ft | 116 kts | 42° |
| 2026-04-11 15:38 | 39.39990 | -8.39577 | 3048 ft | 113 kts | 42° |
| 2026-04-11 15:39 | 39.40517 | -8.38804 | 3052 ft | 116 kts | 43° |
| 2026-04-11 15:39 | 39.41061 | -8.37999 | 3062 ft | 121 kts | 44° |
| 2026-04-11 15:39 | 39.41614 | -8.37186 | 3049 ft | 119 kts | 43° |
| 2026-04-11 15:39 | 39.42151 | -8.36382 | 3049 ft | 117 kts | 43° |
| 2026-04-11 15:40 | 39.42687 | -8.35591 | 3046 ft | 119 kts | 44° |
| 2026-04-11 15:40 | 39.43233 | -8.34787 | 3052 ft | 119 kts | 44° |
| 2026-04-11 15:40 | 39.43776 | -8.33985 | 3046 ft | 117 kts | 43° |
| 2026-04-11 15:40 | 39.44305 | -8.33200 | 3059 ft | 117 kts | 43° |
| 2026-04-11 15:41 | 39.44843 | -8.32404 | 3070 ft | 118 kts | 43° |
| 2026-04-11 15:41 | 39.45398 | -8.31581 | 3059 ft | 122 kts | 44° |
| 2026-04-11 15:41 | 39.45949 | -8.30764 | 3060 ft | 120 kts | 44° |
| 2026-04-11 15:41 | 39.46501 | -8.29944 | 3047 ft | 120 kts | 44° |
| 2026-04-11 15:42 | 39.47038 | -8.29148 | 3058 ft | 117 kts | 44° |
| 2026-04-11 15:42 | 39.47574 | -8.28355 | 3048 ft | 116 kts | 44° |
| 2026-04-11 15:42 | 39.48101 | -8.27578 | 3060 ft | 114 kts | 44° |
| 2026-04-11 15:43 | 39.49171 | -8.25997 | 3066 ft | 118 kts | 43° |
| 2026-04-11 15:43 | 39.49715 | -8.25184 | 3063 ft | 123 kts | 43° |
| 2026-04-11 15:43 | 39.50273 | -8.24351 | 3058 ft | 121 kts | 44° |
| 2026-04-11 15:43 | 39.50825 | -8.23528 | 3052 ft | 118 kts | 44° |
| 2026-04-11 15:44 | 39.51367 | -8.22731 | 3061 ft | 120 kts | 44° |
| 2026-04-11 15:44 | 39.51919 | -8.21920 | 3062 ft | 122 kts | 44° |
| 2026-04-11 15:44 | 39.52468 | -8.21093 | 3037 ft | 120 kts | 44° |
| 2026-04-11 15:44 | 39.53025 | -8.20275 | 3029 ft | 122 kts | 45° |
| 2026-04-11 15:45 | 39.53567 | -8.19452 | 3023 ft | 120 kts | 45° |
| 2026-04-11 15:45 | 39.54111 | -8.18655 | 3036 ft | 118 kts | 44° |
| 2026-04-11 15:45 | 39.54650 | -8.17850 | 3033 ft | 118 kts | 46° |
| 2026-04-11 15:45 | 39.55180 | -8.17052 | 3048 ft | 118 kts | 44° |
| 2026-04-11 15:46 | 39.55733 | -8.16236 | 3039 ft | 123 kts | 44° |
| 2026-04-11 15:46 | 39.56285 | -8.15415 | 3025 ft | 120 kts | 44° |
| 2026-04-11 15:46 | 39.56822 | -8.14616 | 3052 ft | 119 kts | 44° |
| 2026-04-11 15:46 | 39.57364 | -8.13796 | 3048 ft | 121 kts | 43° |
| 2026-04-11 15:47 | 39.57928 | -8.12972 | 3045 ft | 121 kts | 44° |
| 2026-04-11 15:47 | 39.58470 | -8.12163 | 3040 ft | 117 kts | 44° |
| 2026-04-11 15:47 | 39.59018 | -8.11346 | 3031 ft | 120 kts | 44° |
| 2026-04-11 15:47 | 39.59566 | -8.10535 | 3042 ft | 121 kts | 45° |
| 2026-04-11 15:48 | 39.60115 | -8.09709 | 3031 ft | 121 kts | 45° |
| 2026-04-11 15:48 | 39.60660 | -8.08896 | 3031 ft | 118 kts | 45° |
| 2026-04-11 15:48 | 39.61199 | -8.08093 | 3029 ft | 118 kts | 45° |
| 2026-04-11 15:48 | 39.61737 | -8.07291 | 3036 ft | 119 kts | 45° |
| 2026-04-11 15:49 | 39.62280 | -8.06479 | 3041 ft | 120 kts | 45° |
| 2026-04-11 15:49 | 39.62835 | -8.05649 | 3031 ft | 120 kts | 46° |
| 2026-04-11 15:49 | 39.63387 | -8.04828 | 3035 ft | 122 kts | 44° |
| 2026-04-11 15:49 | 39.63954 | -8.03979 | 3038 ft | 126 kts | 45° |
| 2026-04-11 15:50 | 39.64477 | -8.03076 | 3040 ft | 126 kts | 60° |
| 2026-04-11 15:50 | 39.64671 | -8.01973 | 3017 ft | 125 kts | 83° |
| 2026-04-11 15:50 | 39.64494 | -8.00840 | 3037 ft | 134 kts | 109° |
| 2026-04-11 15:50 | 39.63910 | -7.99860 | 3029 ft | 141 kts | 137° |
| 2026-04-11 15:51 | 39.63183 | -7.99054 | 3033 ft | 138 kts | 136° |
| 2026-04-11 15:51 | 39.62461 | -7.98240 | 3032 ft | 137 kts | 137° |
| 2026-04-11 15:51 | 39.61744 | -7.97430 | 3030 ft | 135 kts | 137° |
| 2026-04-11 15:51 | 39.61032 | -7.96625 | 3031 ft | 136 kts | 137° |
| 2026-04-11 15:52 | 39.60322 | -7.95825 | 3024 ft | 135 kts | 136° |
| 2026-04-11 15:52 | 39.59607 | -7.95017 | 3028 ft | 138 kts | 136° |
| 2026-04-11 15:52 | 39.58885 | -7.94207 | 3021 ft | 136 kts | 136° |
| 2026-04-11 15:52 | 39.58167 | -7.93396 | 3014 ft | 136 kts | 136° |
| 2026-04-11 15:53 | 39.57448 | -7.92595 | 3024 ft | 137 kts | 136° |
| 2026-04-11 15:53 | 39.56719 | -7.91790 | 3017 ft | 140 kts | 144° |
| 2026-04-11 15:53 | 39.55792 | -7.91459 | 3020 ft | 139 kts | 180° |
| 2026-04-11 15:53 | 39.54832 | -7.91444 | 3038 ft | 138 kts | 180° |
| 2026-04-11 15:54 | 39.53846 | -7.91429 | 3036 ft | 142 kts | 180° |
| 2026-04-11 15:54 | 39.52862 | -7.91410 | 3051 ft | 141 kts | 180° |
| 2026-04-11 15:54 | 39.51888 | -7.91395 | 3133 ft | 139 kts | 180° |
| 2026-04-11 15:54 | 39.50925 | -7.91370 | 3117 ft | 139 kts | 180° |
| 2026-04-11 15:55 | 39.49936 | -7.91363 | 2968 ft | 144 kts | 181° |
| 2026-04-11 15:55 | 39.48920 | -7.91350 | 2723 ft | 144 kts | 180° |
| 2026-04-11 15:55 | 39.47958 | -7.91330 | 2504 ft | 134 kts | 180° |
| 2026-04-11 15:55 | 39.47062 | -7.91323 | 2508 ft | 133 kts | 181° |
| 2026-04-11 15:56 | 39.46145 | -7.91377 | 2502 ft | 130 kts | 199° |
| 2026-04-11 15:56 | 39.45330 | -7.91850 | 2508 ft | 128 kts | 207° |
| 2026-04-11 15:56 | 39.44501 | -7.92321 | 2518 ft | 131 kts | 207° |
| 2026-04-11 15:56 | 39.43659 | -7.92808 | 2511 ft | 132 kts | 207° |
| 2026-04-11 15:57 | 39.43104 | -7.93126 | 2510 ft | 132 kts | 207° |
| 2026-04-11 15:57 | 39.42271 | -7.93610 | 2506 ft | 130 kts | 207° |
| 2026-04-11 15:57 | 39.41444 | -7.94091 | 2511 ft | 132 kts | 207° |
| 2026-04-11 15:57 | 39.40590 | -7.94586 | 2517 ft | 137 kts | 207° |
| 2026-04-11 15:58 | 39.39713 | -7.95089 | 2519 ft | 139 kts | 207° |
| 2026-04-11 15:58 | 39.38828 | -7.95604 | 2519 ft | 139 kts | 207° |
| 2026-04-11 15:58 | 39.37940 | -7.96111 | 2520 ft | 140 kts | 206° |
| 2026-04-11 15:58 | 39.37059 | -7.96607 | 2519 ft | 137 kts | 206° |
| 2026-04-11 15:59 | 39.36226 | -7.97078 | 2487 ft | 121 kts | 207° |
| 2026-04-11 15:59 | 39.35531 | -7.97480 | 2493 ft | 97 kts | 209° |
| 2026-04-11 15:59 | 39.34956 | -7.97803 | 2481 ft | 86 kts | 211° |
| 2026-04-11 15:59 | 39.34440 | -7.98106 | 2444 ft | 79 kts | 209° |
| 2026-04-11 16:00 | 39.33966 | -7.98370 | 2374 ft | 70 kts | 211° |
| 2026-04-11 16:00 | 39.33500 | -7.98656 | 2051 ft | 81 kts | 202° |
| 2026-04-11 16:00 | 39.33092 | -7.98860 | 1360 ft | 90 kts | 221° |